sensor_id;sensor_type;location;lat;lon;timestamp;temperature;humidity
75899;DHT22;64576;50.460;4.866;2022-11-23T00:01:22;7.17;96.05
75899;DHT22;64576;50.460;4.866;2022-11-23T00:03:50;7.13;96.48
75899;DHT22;64576;50.460;4.866;2022-11-23T00:06:17;7.14;95.70
75899;DHT22;64576;50.460;4.866;2022-11-23T00:08:43;7.13;95.99
75899;DHT22;64576;50.460;4.866;2022-11-23T00:11:09;7.10;96.04
75899;DHT22;64576;50.460;4.866;2022-11-23T00:13:36;7.07;96.18
75899;DHT22;64576;50.460;4.866;2022-11-23T00:16:21;7.20;95.61
75899;DHT22;64576;50.460;4.866;2022-11-23T00:18:47;7.17;95.20
75899;DHT22;64576;50.460;4.866;2022-11-23T00:21:17;7.11;95.55
75899;DHT22;64576;50.460;4.866;2022-11-23T00:23:43;7.13;95.13
75899;DHT22;64576;50.460;4.866;2022-11-23T00:26:09;7.17;94.71
75899;DHT22;64576;50.460;4.866;2022-11-23T00:28:35;7.18;94.98
75899;DHT22;64576;50.460;4.866;2022-11-23T00:31:10;7.15;94.73
75899;DHT22;64576;50.460;4.866;2022-11-23T00:33:36;7.18;94.51
75899;DHT22;64576;50.460;4.866;2022-11-23T00:36:10;7.14;94.70
75899;DHT22;64576;50.460;4.866;2022-11-23T00:38:37;7.14;94.63
75899;DHT22;64576;50.460;4.866;2022-11-23T00:41:06;7.11;94.83
75899;DHT22;64576;50.460;4.866;2022-11-23T00:43:32;7.10;95.02
75899;DHT22;64576;50.460;4.866;2022-11-23T00:46:05;7.04;95.41
75899;DHT22;64576;50.460;4.866;2022-11-23T00:48:31;7.00;95.80
75899;DHT22;64576;50.460;4.866;2022-11-23T00:50:58;6.99;95.63
75899;DHT22;64576;50.460;4.866;2022-11-23T00:53:23;6.96;95.70
75899;DHT22;64576;50.460;4.866;2022-11-23T00:55:53;7.05;94.87
75899;DHT22;64576;50.460;4.866;2022-11-23T00:58:19;7.03;94.82
75899;DHT22;64576;50.460;4.866;2022-11-23T01:00:45;7.13;94.03
75899;DHT22;64576;50.460;4.866;2022-11-23T01:03:11;7.13;93.53
75899;DHT22;64576;50.460;4.866;2022-11-23T01:05:37;7.13;93.88
75899;DHT22;64576;50.460;4.866;2022-11-23T01:08:04;7.03;94.37
75899;DHT22;64576;50.460;4.866;2022-11-23T01:10:30;7.01;94.18
75899;DHT22;64576;50.460;4.866;2022-11-23T01:12:56;7.03;93.11
75899;DHT22;64576;50.460;4.866;2022-11-23T01:15:21;6.93;93.72
75899;DHT22;64576;50.460;4.866;2022-11-23T01:17:47;7.07;92.54
75899;DHT22;64576;50.460;4.866;2022-11-23T01:20:13;7.03;92.93
75899;DHT22;64576;50.460;4.866;2022-11-23T01:22:39;7.03;92.58
75899;DHT22;64576;50.460;4.866;2022-11-23T01:25:05;7.01;92.71
75899;DHT22;64576;50.460;4.866;2022-11-23T01:27:31;6.96;92.67
75899;DHT22;64576;50.460;4.866;2022-11-23T01:29:56;6.92;92.68
75899;DHT22;64576;50.460;4.866;2022-11-23T01:32:22;6.90;92.58
75899;DHT22;64576;50.460;4.866;2022-11-23T01:34:47;6.92;92.41
75899;DHT22;64576;50.460;4.866;2022-11-23T01:37:13;7.01;91.73
75899;DHT22;64576;50.460;4.866;2022-11-23T01:39:39;6.93;91.98
75899;DHT22;64576;50.460;4.866;2022-11-23T01:42:04;6.92;91.98
75899;DHT22;64576;50.460;4.866;2022-11-23T01:44:34;6.92;92.12
75899;DHT22;64576;50.460;4.866;2022-11-23T01:47:02;7.05;91.39
75899;DHT22;64576;50.460;4.866;2022-11-23T01:49:38;7.01;91.69
75899;DHT22;64576;50.460;4.866;2022-11-23T01:52:10;7.10;91.23
75899;DHT22;64576;50.460;4.866;2022-11-23T01:54:43;7.13;91.15
75899;DHT22;64576;50.460;4.866;2022-11-23T01:57:16;7.20;90.99
75899;DHT22;64576;50.460;4.866;2022-11-23T01:59:44;7.11;91.42
75899;DHT22;64576;50.460;4.866;2022-11-23T02:02:11;7.08;91.70
75899;DHT22;64576;50.460;4.866;2022-11-23T02:08:00;7.03;91.91
75899;DHT22;64576;50.460;4.866;2022-11-23T02:10:28;7.05;91.55
75899;DHT22;64576;50.460;4.866;2022-11-23T02:12:54;7.03;92.00
75899;DHT22;64576;50.460;4.866;2022-11-23T02:15:20;6.99;91.84
75899;DHT22;64576;50.460;4.866;2022-11-23T02:17:45;7.05;91.52
75899;DHT22;64576;50.460;4.866;2022-11-23T02:20:14;7.05;91.45
75899;DHT22;64576;50.460;4.866;2022-11-23T02:28:17;7.08;91.43
75899;DHT22;64576;50.460;4.866;2022-11-23T02:30:46;7.03;92.04
75899;DHT22;64576;50.460;4.866;2022-11-23T02:33:13;7.05;91.94
75899;DHT22;64576;50.460;4.866;2022-11-23T02:35:54;7.07;91.76
75899;DHT22;64576;50.460;4.866;2022-11-23T02:38:20;7.04;91.81
75899;DHT22;64576;50.460;4.866;2022-11-23T02:40:47;7.01;92.27
75899;DHT22;64576;50.460;4.866;2022-11-23T02:43:13;7.00;92.38
75899;DHT22;64576;50.460;4.866;2022-11-23T02:45:49;6.92;92.72
75899;DHT22;64576;50.460;4.866;2022-11-23T02:48:16;6.90;92.95
75899;DHT22;64576;50.460;4.866;2022-11-23T02:50:42;6.97;92.28
75899;DHT22;64576;50.460;4.866;2022-11-23T02:53:09;6.89;92.88
75899;DHT22;64576;50.460;4.866;2022-11-23T02:55:34;6.89;92.82
75899;DHT22;64576;50.460;4.866;2022-11-23T02:58:01;6.97;91.64
75899;DHT22;64576;50.460;4.866;2022-11-23T03:00:26;6.90;92.43
75899;DHT22;64576;50.460;4.866;2022-11-23T03:02:52;6.86;92.29
75899;DHT22;64576;50.460;4.866;2022-11-23T03:05:17;6.94;91.73
75899;DHT22;64576;50.460;4.866;2022-11-23T03:07:43;6.87;92.10
75899;DHT22;64576;50.460;4.866;2022-11-23T03:10:09;6.79;92.72
75899;DHT22;64576;50.460;4.866;2022-11-23T03:12:35;6.94;91.42
75899;DHT22;64576;50.460;4.866;2022-11-23T03:15:00;6.90;91.80
75899;DHT22;64576;50.460;4.866;2022-11-23T03:17:26;6.92;91.62
75899;DHT22;64576;50.460;4.866;2022-11-23T03:19:55;6.85;91.97
75899;DHT22;64576;50.460;4.866;2022-11-23T03:22:20;6.87;91.36
75899;DHT22;64576;50.460;4.866;2022-11-23T03:24:46;6.94;90.88
75899;DHT22;64576;50.460;4.866;2022-11-23T03:27:11;6.94;91.02
75899;DHT22;64576;50.460;4.866;2022-11-23T03:29:37;6.94;90.69
75899;DHT22;64576;50.460;4.866;2022-11-23T03:32:03;7.00;90.38
75899;DHT22;64576;50.460;4.866;2022-11-23T03:34:28;6.97;90.29
75899;DHT22;64576;50.460;4.866;2022-11-23T03:36:54;7.01;89.86
75899;DHT22;64576;50.460;4.866;2022-11-23T03:39:19;7.04;90.26
75899;DHT22;64576;50.460;4.866;2022-11-23T03:41:45;7.00;90.00
75899;DHT22;64576;50.460;4.866;2022-11-23T03:44:11;7.03;89.69
75899;DHT22;64576;50.460;4.866;2022-11-23T03:46:37;7.08;89.57
75899;DHT22;64576;50.460;4.866;2022-11-23T03:49:02;7.04;89.89
75899;DHT22;64576;50.460;4.866;2022-11-23T03:51:28;7.04;90.05
75899;DHT22;64576;50.460;4.866;2022-11-23T03:53:53;7.04;89.51
75899;DHT22;64576;50.460;4.866;2022-11-23T03:56:19;7.07;89.57
75899;DHT22;64576;50.460;4.866;2022-11-23T03:58:45;7.13;88.65
75899;DHT22;64576;50.460;4.866;2022-11-23T04:01:10;7.11;88.54
75899;DHT22;64576;50.460;4.866;2022-11-23T04:03:36;7.08;88.68
75899;DHT22;64576;50.460;4.866;2022-11-23T04:06:01;7.08;88.96
75899;DHT22;64576;50.460;4.866;2022-11-23T04:08:27;7.10;88.94
75899;DHT22;64576;50.460;4.866;2022-11-23T04:10:57;7.05;89.23
75899;DHT22;64576;50.460;4.866;2022-11-23T04:13:24;7.11;88.36
75899;DHT22;64576;50.460;4.866;2022-11-23T04:15:50;7.15;88.18
75899;DHT22;64576;50.460;4.866;2022-11-23T04:18:15;7.10;88.54
75899;DHT22;64576;50.460;4.866;2022-11-23T04:20:41;7.15;88.05
75899;DHT22;64576;50.460;4.866;2022-11-23T04:23:07;7.14;88.37
75899;DHT22;64576;50.460;4.866;2022-11-23T04:25:32;7.08;88.27
75899;DHT22;64576;50.460;4.866;2022-11-23T04:27:58;7.13;88.11
75899;DHT22;64576;50.460;4.866;2022-11-23T04:30:23;7.10;88.18
75899;DHT22;64576;50.460;4.866;2022-11-23T04:32:49;7.08;88.60
75899;DHT22;64576;50.460;4.866;2022-11-23T04:35:15;7.05;88.58
75899;DHT22;64576;50.460;4.866;2022-11-23T04:37:40;7.04;89.03
75899;DHT22;64576;50.460;4.866;2022-11-23T04:40:06;6.99;89.01
75899;DHT22;64576;50.460;4.866;2022-11-23T04:42:32;6.97;88.71
75899;DHT22;64576;50.460;4.866;2022-11-23T04:44:58;6.99;88.81
75899;DHT22;64576;50.460;4.866;2022-11-23T04:47:24;6.90;89.14
75899;DHT22;64576;50.460;4.866;2022-11-23T04:49:50;6.86;89.50
75899;DHT22;64576;50.460;4.866;2022-11-23T04:52:15;6.75;89.81
75899;DHT22;64576;50.460;4.866;2022-11-23T04:54:41;6.79;89.35
75899;DHT22;64576;50.460;4.866;2022-11-23T04:57:07;6.76;89.50
75899;DHT22;64576;50.460;4.866;2022-11-23T04:59:32;6.72;90.04
75899;DHT22;64576;50.460;4.866;2022-11-23T05:01:58;6.66;90.35
75899;DHT22;64576;50.460;4.866;2022-11-23T05:04:23;6.71;90.09
75899;DHT22;64576;50.460;4.866;2022-11-23T05:06:49;6.73;90.17
75899;DHT22;64576;50.460;4.866;2022-11-23T05:09:14;6.73;90.11
75899;DHT22;64576;50.460;4.866;2022-11-23T05:11:40;6.71;90.27
75899;DHT22;64576;50.460;4.866;2022-11-23T05:14:06;6.66;90.31
75899;DHT22;64576;50.460;4.866;2022-11-23T05:16:31;6.72;90.41
75899;DHT22;64576;50.460;4.866;2022-11-23T05:18:57;6.65;90.78
75899;DHT22;64576;50.460;4.866;2022-11-23T05:21:22;6.62;91.12
75899;DHT22;64576;50.460;4.866;2022-11-23T05:23:48;6.55;91.40
75899;DHT22;64576;50.460;4.866;2022-11-23T05:26:13;6.44;91.83
75899;DHT22;64576;50.460;4.866;2022-11-23T05:28:39;6.37;91.89
75899;DHT22;64576;50.460;4.866;2022-11-23T05:31:04;6.39;91.95
75899;DHT22;64576;50.460;4.866;2022-11-23T05:33:30;6.32;92.17
75899;DHT22;64576;50.460;4.866;2022-11-23T05:35:55;6.28;92.44
75899;DHT22;64576;50.460;4.866;2022-11-23T05:38:21;6.24;92.72
75899;DHT22;64576;50.460;4.866;2022-11-23T05:40:46;6.17;92.83
75899;DHT22;64576;50.460;4.866;2022-11-23T05:43:12;6.11;93.08
75899;DHT22;64576;50.460;4.866;2022-11-23T05:45:37;6.16;92.68
75899;DHT22;64576;50.460;4.866;2022-11-23T05:48:03;6.01;93.21
75899;DHT22;64576;50.460;4.866;2022-11-23T05:50:29;6.01;93.37
75899;DHT22;64576;50.460;4.866;2022-11-23T05:52:58;6.01;93.11
75899;DHT22;64576;50.460;4.866;2022-11-23T05:55:24;5.92;93.56
75899;DHT22;64576;50.460;4.866;2022-11-23T05:57:50;5.96;93.11
75899;DHT22;64576;50.460;4.866;2022-11-23T06:00:16;5.89;93.31
75899;DHT22;64576;50.460;4.866;2022-11-23T06:02:42;5.93;92.82
75899;DHT22;64576;50.460;4.866;2022-11-23T06:05:07;5.87;93.20
75899;DHT22;64576;50.460;4.866;2022-11-23T06:07:34;5.76;93.68
75899;DHT22;64576;50.460;4.866;2022-11-23T06:10:00;5.69;93.99
75899;DHT22;64576;50.460;4.866;2022-11-23T06:12:27;5.66;94.15
75899;DHT22;64576;50.460;4.866;2022-11-23T06:14:53;5.65;94.03
75899;DHT22;64576;50.460;4.866;2022-11-23T06:17:18;5.59;94.10
75899;DHT22;64576;50.460;4.866;2022-11-23T06:19:44;5.60;93.97
75899;DHT22;64576;50.460;4.866;2022-11-23T06:22:09;5.62;93.62
75899;DHT22;64576;50.460;4.866;2022-11-23T06:24:34;5.60;93.90
75899;DHT22;64576;50.460;4.866;2022-11-23T06:27:00;5.62;93.84
75899;DHT22;64576;50.460;4.866;2022-11-23T06:29:25;5.54;94.03
75899;DHT22;64576;50.460;4.866;2022-11-23T06:31:50;5.49;94.06
75899;DHT22;64576;50.460;4.866;2022-11-23T06:34:16;5.62;93.35
75899;DHT22;64576;50.460;4.866;2022-11-23T06:36:41;5.59;93.23
75899;DHT22;64576;50.460;4.866;2022-11-23T06:39:07;5.54;93.05
75899;DHT22;64576;50.460;4.866;2022-11-23T06:41:33;5.42;93.30
75899;DHT22;64576;50.460;4.866;2022-11-23T06:43:58;5.41;93.70
75899;DHT22;64576;50.460;4.866;2022-11-23T06:46:23;5.42;93.64
75899;DHT22;64576;50.460;4.866;2022-11-23T06:48:49;5.51;92.91
75899;DHT22;64576;50.460;4.866;2022-11-23T06:51:14;5.42;93.06
75899;DHT22;64576;50.460;4.866;2022-11-23T06:53:40;5.36;93.27
75899;DHT22;64576;50.460;4.866;2022-11-23T06:56:05;5.38;93.25
75899;DHT22;64576;50.460;4.866;2022-11-23T06:58:31;5.44;92.59
75899;DHT22;64576;50.460;4.866;2022-11-23T07:01:01;5.45;92.57
75899;DHT22;64576;50.460;4.866;2022-11-23T07:03:27;5.41;92.88
75899;DHT22;64576;50.460;4.866;2022-11-23T07:05:52;5.39;93.23
75899;DHT22;64576;50.460;4.866;2022-11-23T07:08:18;5.39;93.19
75899;DHT22;64576;50.460;4.866;2022-11-23T07:10:43;5.44;93.09
75899;DHT22;64576;50.460;4.866;2022-11-23T07:13:09;5.41;93.09
75899;DHT22;64576;50.460;4.866;2022-11-23T07:15:35;5.41;93.33
75899;DHT22;64576;50.460;4.866;2022-11-23T07:18:01;5.45;93.26
75899;DHT22;64576;50.460;4.866;2022-11-23T07:20:27;5.49;93.20
75899;DHT22;64576;50.460;4.866;2022-11-23T07:23:09;5.59;92.99
75899;DHT22;64576;50.460;4.866;2022-11-23T07:25:36;5.72;92.46
75899;DHT22;64576;50.460;4.866;2022-11-23T07:28:03;5.76;92.37
75899;DHT22;64576;50.460;4.866;2022-11-23T07:30:30;5.83;92.12
75899;DHT22;64576;50.460;4.866;2022-11-23T07:33:00;5.89;91.95
75899;DHT22;64576;50.460;4.866;2022-11-23T07:35:26;5.96;91.83
75899;DHT22;64576;50.460;4.866;2022-11-23T07:37:52;6.00;91.77
75899;DHT22;64576;50.460;4.866;2022-11-23T07:40:17;5.99;92.21
75899;DHT22;64576;50.460;4.866;2022-11-23T07:42:43;6.00;92.14
75899;DHT22;64576;50.460;4.866;2022-11-23T07:45:09;6.10;91.67
75899;DHT22;64576;50.460;4.866;2022-11-23T07:47:34;6.14;91.21
75899;DHT22;64576;50.460;4.866;2022-11-23T07:49:59;6.14;91.17
75899;DHT22;64576;50.460;4.866;2022-11-23T07:52:25;6.13;91.08
75899;DHT22;64576;50.460;4.866;2022-11-23T07:54:50;6.13;91.14
75899;DHT22;64576;50.460;4.866;2022-11-23T07:57:16;6.17;91.29
75899;DHT22;64576;50.460;4.866;2022-11-23T07:59:41;6.20;91.20
75899;DHT22;64576;50.460;4.866;2022-11-23T08:02:13;6.24;91.30
75899;DHT22;64576;50.460;4.866;2022-11-23T08:04:38;6.25;90.94
75899;DHT22;64576;50.460;4.866;2022-11-23T08:07:04;6.28;90.90
75899;DHT22;64576;50.460;4.866;2022-11-23T08:09:30;6.31;90.83
75899;DHT22;64576;50.460;4.866;2022-11-23T08:11:55;6.37;90.71
75899;DHT22;64576;50.460;4.866;2022-11-23T08:14:20;6.34;90.64
75899;DHT22;64576;50.460;4.866;2022-11-23T08:16:49;6.35;90.71
75899;DHT22;64576;50.460;4.866;2022-11-23T08:19:16;6.42;90.81
75899;DHT22;64576;50.460;4.866;2022-11-23T08:21:41;6.42;90.58
75899;DHT22;64576;50.460;4.866;2022-11-23T08:24:07;6.41;90.55
75899;DHT22;64576;50.460;4.866;2022-11-23T08:26:32;6.48;90.78
75899;DHT22;64576;50.460;4.866;2022-11-23T08:28:57;6.52;90.53
75899;DHT22;64576;50.460;4.866;2022-11-23T08:31:23;6.52;90.63
75899;DHT22;64576;50.460;4.866;2022-11-23T08:33:49;6.61;90.31
75899;DHT22;64576;50.460;4.866;2022-11-23T08:36:14;6.65;90.12
75899;DHT22;64576;50.460;4.866;2022-11-23T08:38:39;6.68;90.05
75899;DHT22;64576;50.460;4.866;2022-11-23T08:41:05;6.76;89.93
75899;DHT22;64576;50.460;4.866;2022-11-23T08:43:30;6.71;90.16
75899;DHT22;64576;50.460;4.866;2022-11-23T08:45:59;6.58;90.23
75899;DHT22;64576;50.460;4.866;2022-11-23T08:48:25;6.58;90.56
75899;DHT22;64576;50.460;4.866;2022-11-23T08:50:52;6.61;90.76
75899;DHT22;64576;50.460;4.866;2022-11-23T08:53:17;6.65;90.46
75899;DHT22;64576;50.460;4.866;2022-11-23T08:55:42;6.80;90.48
75899;DHT22;64576;50.460;4.866;2022-11-23T08:58:08;7.55;88.08
75899;DHT22;64576;50.460;4.866;2022-11-23T09:00:34;7.28;88.04
75899;DHT22;64576;50.460;4.866;2022-11-23T09:03:00;7.03;89.69
75899;DHT22;64576;50.460;4.866;2022-11-23T09:05:26;6.82;90.03
75899;DHT22;64576;50.460;4.866;2022-11-23T09:08:01;6.77;90.55
75899;DHT22;64576;50.460;4.866;2022-11-23T09:10:27;6.82;90.74
75899;DHT22;64576;50.460;4.866;2022-11-23T09:12:52;6.82;90.83
75899;DHT22;64576;50.460;4.866;2022-11-23T09:15:18;6.85;90.96
75899;DHT22;64576;50.460;4.866;2022-11-23T09:17:43;6.90;90.91
75899;DHT22;64576;50.460;4.866;2022-11-23T09:20:09;6.94;90.54
75899;DHT22;64576;50.460;4.866;2022-11-23T09:22:35;6.99;90.48
75899;DHT22;64576;50.460;4.866;2022-11-23T09:25:00;6.96;90.60
75899;DHT22;64576;50.460;4.866;2022-11-23T09:27:26;6.97;90.63
75899;DHT22;64576;50.460;4.866;2022-11-23T09:29:51;6.94;90.75
75899;DHT22;64576;50.460;4.866;2022-11-23T09:32:16;7.01;90.94
75899;DHT22;64576;50.460;4.866;2022-11-23T09:34:42;7.03;90.63
75899;DHT22;64576;50.460;4.866;2022-11-23T09:37:08;7.08;90.57
75899;DHT22;64576;50.460;4.866;2022-11-23T09:39:33;7.11;90.39
75899;DHT22;64576;50.460;4.866;2022-11-23T09:42:16;7.35;89.31
75899;DHT22;64576;50.460;4.866;2022-11-23T09:52:34;7.34;89.60
75899;DHT22;64576;50.460;4.866;2022-11-23T09:55:04;7.52;88.44
75899;DHT22;64576;50.460;4.866;2022-11-23T09:57:33;7.75;87.75
75899;DHT22;64576;50.460;4.866;2022-11-23T10:02:28;7.96;86.91
75899;DHT22;64576;50.460;4.866;2022-11-23T10:04:55;9.11;82.00
75899;DHT22;64576;50.460;4.866;2022-11-23T10:07:30;9.90;79.15
75899;DHT22;64576;50.460;4.866;2022-11-23T10:13:10;10.54;76.02
75899;DHT22;64576;50.460;4.866;2022-11-23T10:15:55;10.88;74.72
75899;DHT22;64576;50.460;4.866;2022-11-23T10:18:57;9.85;78.28
75899;DHT22;64576;50.460;4.866;2022-11-23T10:22:01;10.27;77.16
75899;DHT22;64576;50.460;4.866;2022-11-23T10:24:30;10.21;77.07
75899;DHT22;64576;50.460;4.866;2022-11-23T10:26:57;10.71;74.71
75899;DHT22;64576;50.460;4.866;2022-11-23T10:29:30;10.24;76.81
75899;DHT22;64576;50.460;4.866;2022-11-23T10:31:57;10.20;76.28
75899;DHT22;64576;50.460;4.866;2022-11-23T10:36:54;9.87;78.68
75899;DHT22;64576;50.460;4.866;2022-11-23T10:39:24;10.29;76.81
75899;DHT22;64576;50.460;4.866;2022-11-23T10:41:50;9.97;77.64
75899;DHT22;64576;50.460;4.866;2022-11-23T10:44:31;10.30;76.83
75899;DHT22;64576;50.460;4.866;2022-11-23T10:46:58;10.04;76.85
75899;DHT22;64576;50.460;4.866;2022-11-23T10:51:56;9.82;77.82
75899;DHT22;64576;50.460;4.866;2022-11-23T10:54:26;9.65;77.38
75899;DHT22;64576;50.460;4.866;2022-11-23T10:56:53;9.97;77.69
75899;DHT22;64576;50.460;4.866;2022-11-23T10:59:27;9.66;77.74
75899;DHT22;64576;50.460;4.866;2022-11-23T11:02:16;9.76;77.59
75899;DHT22;64576;50.460;4.866;2022-11-23T11:04:42;10.18;76.06
75899;DHT22;64576;50.460;4.866;2022-11-23T11:09:50;9.89;76.98
75899;DHT22;64576;50.460;4.866;2022-11-23T11:12:16;9.79;76.83
75899;DHT22;64576;50.460;4.866;2022-11-23T11:17:32;9.82;77.49
75899;DHT22;64576;50.460;4.866;2022-11-23T11:19:58;10.00;76.39
75899;DHT22;64576;50.460;4.866;2022-11-23T11:24:53;10.00;75.39
75899;DHT22;64576;50.460;4.866;2022-11-23T11:27:23;10.03;75.26
75899;DHT22;64576;50.460;4.866;2022-11-23T11:30:24;10.25;74.94
75899;DHT22;64576;50.460;4.866;2022-11-23T11:33:13;10.11;75.06
75899;DHT22;64576;50.460;4.866;2022-11-23T11:35:46;9.78;76.19
75899;DHT22;64576;50.460;4.866;2022-11-23T11:38:21;9.52;76.56
75899;DHT22;64576;50.460;4.866;2022-11-23T11:40:50;9.75;76.60
75899;DHT22;64576;50.460;4.866;2022-11-23T11:43:28;10.52;73.40
75899;DHT22;64576;50.460;4.866;2022-11-23T11:46:15;10.73;72.35
75899;DHT22;64576;50.460;4.866;2022-11-23T11:48:50;10.73;72.24
75899;DHT22;64576;50.460;4.866;2022-11-23T11:51:22;10.45;73.34
75899;DHT22;64576;50.460;4.866;2022-11-23T11:56:35;9.90;75.31
75899;DHT22;64576;50.460;4.866;2022-11-23T11:59:12;9.62;75.80
75899;DHT22;64576;50.460;4.866;2022-11-23T12:01:43;9.93;74.65
75899;DHT22;64576;50.460;4.866;2022-11-23T12:04:36;9.93;74.08
75899;DHT22;64576;50.460;4.866;2022-11-23T12:07:09;9.72;75.02
75899;DHT22;64576;50.460;4.866;2022-11-23T12:09:41;9.59;75.02
75899;DHT22;64576;50.460;4.866;2022-11-23T12:12:15;9.69;75.08
75899;DHT22;64576;50.460;4.866;2022-11-23T12:14:41;9.62;75.36
75899;DHT22;64576;50.460;4.866;2022-11-23T12:17:36;9.51;75.41
75899;DHT22;64576;50.460;4.866;2022-11-23T12:20:10;9.42;75.95
75899;DHT22;64576;50.460;4.866;2022-11-23T12:23:37;9.42;76.08
75899;DHT22;64576;50.460;4.866;2022-11-23T12:31:14;9.39;76.15
75899;DHT22;64576;50.460;4.866;2022-11-23T12:33:56;9.45;75.86
75899;DHT22;64576;50.460;4.866;2022-11-23T12:36:35;9.37;75.21
75899;DHT22;64576;50.460;4.866;2022-11-23T12:39:30;9.34;75.24
75899;DHT22;64576;50.460;4.866;2022-11-23T12:42:25;9.23;75.79
75899;DHT22;64576;50.460;4.866;2022-11-23T12:45:26;9.11;76.42
75899;DHT22;64576;50.460;4.866;2022-11-23T12:53:44;8.37;82.25
75899;DHT22;64576;50.460;4.866;2022-11-23T12:59:02;7.86;86.17
75899;DHT22;64576;50.460;4.866;2022-11-23T13:01:34;7.85;85.51
75899;DHT22;64576;50.460;4.866;2022-11-23T13:07:22;7.72;88.19
75899;DHT22;64576;50.460;4.866;2022-11-23T13:10:11;7.69;89.07
75899;DHT22;64576;50.460;4.866;2022-11-23T13:12:52;7.62;89.24
75899;DHT22;64576;50.460;4.866;2022-11-23T13:21:38;7.49;89.59
75899;DHT22;64576;50.460;4.866;2022-11-23T13:34:59;7.13;93.63
75899;DHT22;64576;50.460;4.866;2022-11-23T13:37:24;7.14;93.74
75899;DHT22;64576;50.460;4.866;2022-11-23T13:42:15;7.01;95.56
75899;DHT22;64576;50.460;4.866;2022-11-23T13:44:41;7.03;95.26
75899;DHT22;64576;50.460;4.866;2022-11-23T13:49:51;7.01;95.25
75899;DHT22;64576;50.460;4.866;2022-11-23T13:52:46;6.97;95.70
75899;DHT22;64576;50.460;4.866;2022-11-23T14:00:50;6.80;96.55
75899;DHT22;64576;50.460;4.866;2022-11-23T14:09:59;6.83;96.33
75899;DHT22;64576;50.460;4.866;2022-11-23T14:15:18;6.77;96.67
75899;DHT22;64576;50.460;4.866;2022-11-23T14:31:50;6.79;97.08
75899;DHT22;64576;50.460;4.866;2022-11-23T14:34:49;6.82;97.32
75899;DHT22;64576;50.460;4.866;2022-11-23T14:37:31;6.80;96.98
75899;DHT22;64576;50.460;4.866;2022-11-23T14:43:00;6.77;97.64
75899;DHT22;64576;50.460;4.866;2022-11-23T14:46:02;6.73;98.04
75899;DHT22;64576;50.460;4.866;2022-11-23T14:48:30;6.79;98.12
75899;DHT22;64576;50.460;4.866;2022-11-23T14:51:02;6.77;97.91
75899;DHT22;64576;50.460;4.866;2022-11-23T14:53:44;6.82;97.59
75899;DHT22;64576;50.460;4.866;2022-11-23T14:56:34;6.79;97.59
75899;DHT22;64576;50.460;4.866;2022-11-23T14:59:09;6.80;97.54
75899;DHT22;64576;50.460;4.866;2022-11-23T15:01:44;6.87;96.73
75899;DHT22;64576;50.460;4.866;2022-11-23T15:04:24;6.92;96.69
75899;DHT22;64576;50.460;4.866;2022-11-23T15:06:52;6.96;96.80
75899;DHT22;64576;50.460;4.866;2022-11-23T15:09:32;6.99;96.83
75899;DHT22;64576;50.460;4.866;2022-11-23T15:12:17;7.04;96.93
75899;DHT22;64576;50.460;4.866;2022-11-23T15:14:44;7.21;96.39
75899;DHT22;64576;50.460;4.866;2022-11-23T15:17:17;7.15;96.13
75899;DHT22;64576;50.460;4.866;2022-11-23T15:19:53;7.10;96.44
75899;DHT22;64576;50.460;4.866;2022-11-23T15:22:19;7.14;96.45
75899;DHT22;64576;50.460;4.866;2022-11-23T15:24:47;7.17;96.67
75899;DHT22;64576;50.460;4.866;2022-11-23T15:27:15;7.14;96.31
75899;DHT22;64576;50.460;4.866;2022-11-23T15:29:52;7.13;96.53
75899;DHT22;64576;50.460;4.866;2022-11-23T15:32:29;7.03;97.34
75899;DHT22;64576;50.460;4.866;2022-11-23T15:34:57;6.96;97.78
75899;DHT22;64576;50.460;4.866;2022-11-23T15:37:24;6.92;97.69
75899;DHT22;64576;50.460;4.866;2022-11-23T15:39:52;6.93;97.56
75899;DHT22;64576;50.460;4.866;2022-11-23T15:42:21;7.03;96.79
75899;DHT22;64576;50.460;4.866;2022-11-23T15:44:48;7.00;96.89
75899;DHT22;64576;50.460;4.866;2022-11-23T15:47:19;7.08;96.41
75899;DHT22;64576;50.460;4.866;2022-11-23T15:49:47;7.11;96.34
75899;DHT22;64576;50.460;4.866;2022-11-23T15:52:15;7.15;96.45
75899;DHT22;64576;50.460;4.866;2022-11-23T15:54:41;7.20;96.00
75899;DHT22;64576;50.460;4.866;2022-11-23T15:57:28;7.24;96.06
75899;DHT22;64576;50.460;4.866;2022-11-23T15:59:59;7.23;96.01
75899;DHT22;64576;50.460;4.866;2022-11-23T16:02:28;7.11;96.78
75899;DHT22;64576;50.460;4.866;2022-11-23T16:07:57;7.10;96.67
75899;DHT22;64576;50.460;4.866;2022-11-23T16:10:28;7.18;96.35
75899;DHT22;64576;50.460;4.866;2022-11-23T16:13:01;7.04;96.76
75899;DHT22;64576;50.460;4.866;2022-11-23T16:17:59;7.04;96.66
75899;DHT22;64576;50.460;4.866;2022-11-23T16:20:25;7.04;97.04
75899;DHT22;64576;50.460;4.866;2022-11-23T16:22:52;6.97;96.95
75899;DHT22;64576;50.460;4.866;2022-11-23T16:28:25;6.87;97.54
75899;DHT22;64576;50.460;4.866;2022-11-23T16:30:51;6.89;97.47
75899;DHT22;64576;50.460;4.866;2022-11-23T16:33:18;6.77;98.03
75899;DHT22;64576;50.460;4.866;2022-11-23T16:35:44;6.73;98.12
75899;DHT22;64576;50.460;4.866;2022-11-23T16:38:10;6.69;98.09
75899;DHT22;64576;50.460;4.866;2022-11-23T16:40:37;6.75;98.17
75899;DHT22;64576;50.460;4.866;2022-11-23T16:43:02;6.82;97.85
75899;DHT22;64576;50.460;4.866;2022-11-23T16:45:28;6.75;98.10
75899;DHT22;64576;50.460;4.866;2022-11-23T16:47:57;6.82;98.00
75899;DHT22;64576;50.460;4.866;2022-11-23T16:50:33;6.86;97.64
75899;DHT22;64576;50.460;4.866;2022-11-23T16:53:14;6.92;97.08
75899;DHT22;64576;50.460;4.866;2022-11-23T16:55:40;6.82;97.60
75899;DHT22;64576;50.460;4.866;2022-11-23T16:58:08;6.86;97.59
75899;DHT22;64576;50.460;4.866;2022-11-23T17:00:36;6.86;97.49
75899;DHT22;64576;50.460;4.866;2022-11-23T17:03:01;6.85;97.73
75899;DHT22;64576;50.460;4.866;2022-11-23T17:05:27;6.89;97.59
75899;DHT22;64576;50.460;4.866;2022-11-23T17:07:52;6.85;97.50
75899;DHT22;64576;50.460;4.866;2022-11-23T17:10:17;6.89;97.50
75899;DHT22;64576;50.460;4.866;2022-11-23T17:12:49;6.96;97.30
75899;DHT22;64576;50.460;4.866;2022-11-23T17:15:15;6.85;97.56
75899;DHT22;64576;50.460;4.866;2022-11-23T17:17:41;6.79;97.98
75899;DHT22;64576;50.460;4.866;2022-11-23T17:20:11;6.85;98.05
75899;DHT22;64576;50.460;4.866;2022-11-23T17:22:36;6.87;97.97
75899;DHT22;64576;50.460;4.866;2022-11-23T17:25:02;6.82;98.32
75899;DHT22;64576;50.460;4.866;2022-11-23T17:27:28;6.85;98.34
75899;DHT22;64576;50.460;4.866;2022-11-23T17:29:58;6.87;98.42
75899;DHT22;64576;50.460;4.866;2022-11-23T17:32:24;6.82;98.48
75899;DHT22;64576;50.460;4.866;2022-11-23T17:34:50;6.92;98.11
75899;DHT22;64576;50.460;4.866;2022-11-23T17:37:17;6.86;98.36
75899;DHT22;64576;50.460;4.866;2022-11-23T17:39:44;7.08;98.03
75899;DHT22;64576;50.460;4.866;2022-11-23T17:42:10;7.08;97.84
75899;DHT22;64576;50.460;4.866;2022-11-23T17:44:35;7.21;97.78
75899;DHT22;64576;50.460;4.866;2022-11-23T17:47:01;7.21;97.68
75899;DHT22;64576;50.460;4.866;2022-11-23T17:49:27;7.14;97.66
75899;DHT22;64576;50.460;4.866;2022-11-23T17:51:55;7.17;97.73
75899;DHT22;64576;50.460;4.866;2022-11-23T17:54:22;7.05;97.98